Time;durP1;ratioP1;P1;durP2;ratioP2;P2;SDS_P1;SDS_P2;PMS_P1;PMS_P2;Temp;Humidity;BMP_temperature;BMP_pressure;BME280_temperature;BME280_humidity;BME280_pressure;Samples;Min_cycle;Max_cycle;Signal;HPM_P1;HPM_P2
2023/10/10 00:00:26;;;;;;;13.13;4.25;;;;;;;;;;4369192;32;317925;-85
2023/10/10 00:02:58;;;;;;;15.77;4.32;;;;;;;;;;4370026;32;318260;-81
2023/10/10 00:05:33;;;;;;;12.48;4.35;;;;;;;;;;4382262;32;317919;-87
2023/10/10 00:08:05;;;;;;;13.55;4.00;;;;;;;;;;4373776;32;317865;-86
2023/10/10 00:10:34;;;;;;;11.32;4.28;;;;;;;;;;4383816;32;317770;-86
2023/10/10 00:13:03;;;;;;;7.00;3.25;;;;;;;;;;4373668;32;317724;-86
2023/10/10 00:15:38;;;;;;;17.23;4.62;;;;;;;;;;4381972;32;317213;-84
2023/10/10 00:18:11;;;;;;;8.13;4.03;;;;;;;;;;4369885;32;317966;-83
2023/10/10 00:20:44;;;;;;;12.75;5.90;;;;;;;;;;4383471;32;316829;-86
2023/10/10 00:23:15;;;;;;;16.90;5.80;;;;;;;;;;4370582;32;417407;-86
2023/10/10 00:25:45;;;;;;;14.52;5.95;;;;;;;;;;4382083;32;318259;-84
2023/10/10 00:28:21;;;;;;;15.75;8.05;;;;;;;;;;4367412;32;420213;-86
2023/10/10 00:30:49;;;;;;;20.00;7.85;;;;;;;;;;4380534;32;318349;-80
2023/10/10 00:33:18;;;;;;;14.43;7.28;;;;;;;;;;4390045;32;317742;-80
2023/10/10 00:35:47;;;;;;;13.10;6.35;;;;;;;;;;4376452;32;332195;-85
2023/10/10 00:38:24;;;;;;;18.83;5.95;;;;;;;;;;4394685;32;317391;-87
2023/10/10 00:40:51;;;;;;;14.02;6.07;;;;;;;;;;4375575;32;317790;-86
2023/10/10 00:43:22;;;;;;;16.92;7.30;;;;;;;;;;4384935;32;321152;-84
2023/10/10 00:45:53;;;;;;;13.90;6.00;;;;;;;;;;4371575;32;321489;-85
2023/10/10 00:48:29;;;;;;;15.65;6.40;;;;;;;;;;4382321;32;341735;-86
2023/10/10 00:50:59;;;;;;;19.45;5.47;;;;;;;;;;4373259;32;317875;-85
2023/10/10 00:53:30;;;;;;;14.50;5.50;;;;;;;;;;4385541;32;317713;-86
2023/10/10 00:55:59;;;;;;;12.40;5.65;;;;;;;;;;4372921;32;317686;-85
2023/10/10 00:58:35;;;;;;;11.48;5.18;;;;;;;;;;4386045;32;317683;-85
2023/10/10 01:01:08;;;;;;;14.27;5.18;;;;;;;;;;4373981;32;317693;-86
2023/10/10 01:03:39;;;;;;;14.40;6.18;;;;;;;;;;4389738;32;317733;-82
2023/10/10 01:06:24;;;;;;;9.80;4.37;;;;;;;;;;4381873;32;317712;-86
2023/10/10 01:09:13;;;;;;;16.30;5.40;;;;;;;;;;4384599;32;316583;-86
2023/10/10 01:11:43;;;;;;;15.13;5.82;;;;;;;;;;4394538;32;317962;-87
2023/10/10 01:14:16;;;;;;;49.15;7.07;;;;;;;;;;4370762;32;418245;-86
2023/10/10 01:16:47;;;;;;;11.52;5.95;;;;;;;;;;4383946;32;317826;-86
2023/10/10 01:19:28;;;;;;;25.08;13.75;;;;;;;;;;4349517;32;419678;-87
2023/10/10 01:22:03;;;;;;;37.78;14.00;;;;;;;;;;4377495;32;318636;-87
2023/10/10 01:24:34;;;;;;;24.80;14.52;;;;;;;;;;4389092;32;331986;-86
2023/10/10 01:27:14;;;;;;;24.15;11.57;;;;;;;;;;4387105;32;318686;-88
2023/10/10 01:29:50;;;;;;;16.42;9.18;;;;;;;;;;4385179;32;318811;-87
2023/10/10 01:32:20;;;;;;;14.05;7.57;;;;;;;;;;4368921;32;418039;-86
2023/10/10 01:34:47;;;;;;;17.48;6.12;;;;;;;;;;4373285;32;317642;-86
2023/10/10 01:37:27;;;;;;;18.33;5.65;;;;;;;;;;4385364;32;317708;-86
2023/10/10 01:40:13;;;;;;;12.88;5.93;;;;;;;;;;4380041;32;317560;-86
2023/10/10 01:42:45;;;;;;;14.55;5.18;;;;;;;;;;4371090;32;418123;-82
2023/10/10 01:45:18;;;;;;;11.75;4.53;;;;;;;;;;4374843;32;316750;-83
2023/10/10 01:47:56;;;;;;;15.50;5.25;;;;;;;;;;4381257;32;317684;-87
2023/10/10 01:50:26;;;;;;;15.55;4.70;;;;;;;;;;4371945;32;317863;-86
2023/10/10 01:52:56;;;;;;;10.40;4.60;;;;;;;;;;4383389;32;317714;-85
2023/10/10 01:55:24;;;;;;;10.05;5.22;;;;;;;;;;4371373;32;317746;-81
2023/10/10 01:57:52;;;;;;;11.55;5.15;;;;;;;;;;4383017;32;355975;-87
2023/10/10 02:00:26;;;;;;;10.95;4.90;;;;;;;;;;4373869;32;316703;-86
2023/10/10 02:02:55;;;;;;;14.15;5.85;;;;;;;;;;4383873;32;316678;-87
2023/10/10 02:05:36;;;;;;;13.25;4.93;;;;;;;;;;4374007;32;317930;-87
2023/10/10 02:08:11;;;;;;;14.82;5.82;;;;;;;;;;4384942;32;318059;-86
2023/10/10 02:10:43;;;;;;;18.27;5.53;;;;;;;;;;4370049;32;416644;-86
2023/10/10 02:13:11;;;;;;;11.68;5.47;;;;;;;;;;4373613;32;317747;-81
2023/10/10 02:15:39;;;;;;;13.65;6.03;;;;;;;;;;4380173;32;317821;-83
2023/10/10 02:18:12;;;;;;;12.60;5.22;;;;;;;;;;4383700;32;318012;-87
2023/10/10 02:20:52;;;;;;;12.85;5.25;;;;;;;;;;4369712;32;418312;-88
2023/10/10 02:23:31;;;;;;;11.10;5.35;;;;;;;;;;4373036;32;317778;-87
2023/10/10 02:26:03;;;;;;;14.93;5.32;;;;;;;;;;4384684;32;317827;-87
2023/10/10 02:28:47;;;;;;;14.77;4.78;;;;;;;;;;4373851;32;317859;-88
2023/10/10 02:31:16;;;;;;;11.52;5.53;;;;;;;;;;4371975;32;367600;-88
2023/10/10 02:33:49;;;;;;;11.35;5.25;;;;;;;;;;4381688;32;317723;-87
2023/10/10 02:36:29;;;;;;;12.52;5.00;;;;;;;;;;4373432;32;317717;-86
2023/10/10 02:39:01;;;;;;;11.50;5.05;;;;;;;;;;4381674;32;317707;-86
2023/10/10 02:41:38;;;;;;;11.12;4.95;;;;;;;;;;4370987;32;317729;-87
2023/10/10 02:44:09;;;;;;;7.18;4.30;;;;;;;;;;4383482;32;317796;-87
2023/10/10 02:46:38;;;;;;;15.00;5.60;;;;;;;;;;4371322;32;416347;-88
2023/10/10 02:49:22;;;;;;;10.45;4.40;;;;;;;;;;4381254;32;317941;-87
2023/10/10 02:51:51;;;;;;;14.15;5.80;;;;;;;;;;4369977;32;419890;-87
2023/10/10 02:54:33;;;;;;;10.55;5.00;;;;;;;;;;4372307;32;317808;-88
2023/10/10 02:57:26;;;;;;;11.45;5.70;;;;;;;;;;4383672;32;317728;-87
2023/10/10 03:00:15;;;;;;;10.32;4.87;;;;;;;;;;4367591;32;391132;-86
2023/10/10 03:02:49;;;;;;;13.73;5.00;;;;;;;;;;4370098;32;417954;-86
2023/10/10 03:05:20;;;;;;;8.82;5.60;;;;;;;;;;4372301;32;317942;-87
2023/10/10 03:07:51;;;;;;;41.72;15.07;;;;;;;;;;4381391;32;316945;-87
2023/10/10 03:10:35;;;;;;;32.30;15.00;;;;;;;;;;4372431;32;318677;-87
2023/10/10 03:13:13;;;;;;;38.95;12.13;;;;;;;;;;4383273;32;318976;-88
2023/10/10 03:15:51;;;;;;;23.73;11.02;;;;;;;;;;4367502;32;419344;-88
2023/10/10 03:18:28;;;;;;;21.87;10.30;;;;;;;;;;4371485;32;318823;-87
2023/10/10 03:23:52;;;;;;;12.90;6.70;;;;;;;;;;4368075;32;389141;-88
2023/10/10 03:26:51;;;;;;;12.70;5.80;;;;;;;;;;4369792;32;334720;-85
2023/10/10 03:29:11;;;;;;;12.05;5.60;;;;;;;;;;4382025;32;318098;-86
2023/10/10 03:31:42;;;;;;;15.98;6.40;;;;;;;;;;4366060;32;418706;-86
2023/10/10 03:34:18;;;;;;;12.93;6.55;;;;;;;;;;4383704;32;317869;-86
2023/10/10 03:37:04;;;;;;;11.82;5.25;;;;;;;;;;4371280;32;418378;-86
2023/10/10 03:39:42;;;;;;;16.00;6.28;;;;;;;;;;4370581;32;317839;-85
2023/10/10 05:24:21;;;;;;;16.67;6.40;;;;;;;;;;4372605;32;349864;-86
2023/10/10 05:26:49;;;;;;;12.13;6.10;;;;;;;;;;4385609;32;316597;-85
2023/10/10 05:29:19;;;;;;;24.33;9.93;;;;;;;;;;4373276;32;319768;-86
2023/10/10 05:31:47;;;;;;;18.45;8.50;;;;;;;;;;4383462;32;316998;-86
2023/10/10 05:34:15;;;;;;;21.60;10.25;;;;;;;;;;4373715;32;317888;-86
2023/10/10 05:36:45;;;;;;;20.23;8.00;;;;;;;;;;4385049;32;318690;-87
2023/10/10 05:39:17;;;;;;;20.55;9.48;;;;;;;;;;4370647;32;330351;-87
2023/10/10 05:41:45;;;;;;;26.92;11.60;;;;;;;;;;4383354;32;317868;-87
2023/10/10 05:44:18;;;;;;;20.67;10.15;;;;;;;;;;4374220;32;318940;-86
2023/10/10 05:46:47;;;;;;;30.92;10.30;;;;;;;;;;4361027;32;318917;-89
2023/10/10 05:49:15;;;;;;;16.15;7.75;;;;;;;;;;4373040;32;370657;-89
2023/10/10 05:51:42;;;;;;;47.10;17.65;;;;;;;;;;4382183;32;317915;-89
2023/10/10 05:54:11;;;;;;;48.65;14.85;;;;;;;;;;4384274;32;318698;-87
2023/10/10 05:56:39;;;;;;;30.48;13.07;;;;;;;;;;4370262;32;418028;-89
2023/10/10 05:59:08;;;;;;;37.30;12.48;;;;;;;;;;4384817;32;318908;-91
2023/10/10 06:01:36;;;;;;;28.85;11.35;;;;;;;;;;4367628;32;418275;-92
2023/10/10 06:04:03;;;;;;;29.55;11.73;;;;;;;;;;4383652;32;318600;-86
2023/10/10 06:06:31;;;;;;;36.13;9.68;;;;;;;;;;4372301;32;334854;-84
2023/10/10 06:09:01;;;;;;;21.70;9.15;;;;;;;;;;4383176;32;318127;-86
2023/10/10 06:11:32;;;;;;;27.00;10.65;;;;;;;;;;4371594;32;317723;-83
2023/10/10 06:14:00;;;;;;;32.22;9.57;;;;;;;;;;4383129;32;318737;-86
2023/10/10 06:16:28;;;;;;;16.80;7.65;;;;;;;;;;4373994;32;317756;-85
2023/10/10 06:18:55;;;;;;;32.15;9.15;;;;;;;;;;4384070;32;317770;-85
2023/10/10 06:21:22;;;;;;;28.30;10.13;;;;;;;;;;4373626;32;317655;-83
2023/10/10 06:23:50;;;;;;;26.62;9.18;;;;;;;;;;4378474;32;318914;-85
2023/10/10 06:26:21;;;;;;;31.48;8.88;;;;;;;;;;4373446;32;317743;-86
2023/10/10 06:28:53;;;;;;;17.43;7.33;;;;;;;;;;4383906;32;318065;-86
2023/10/10 06:31:33;;;;;;;18.85;6.55;;;;;;;;;;4372330;32;317901;-85
2023/10/10 06:34:08;;;;;;;14.98;5.82;;;;;;;;;;4383441;32;317951;-83
2023/10/10 06:36:37;;;;;;;13.68;6.90;;;;;;;;;;4370173;32;417080;-87
2023/10/10 06:39:21;;;;;;;17.80;6.90;;;;;;;;;;4381945;32;350679;-84
2023/10/10 06:41:50;;;;;;;24.40;7.55;;;;;;;;;;4370562;32;418144;-87
2023/10/10 06:44:31;;;;;;;16.87;7.97;;;;;;;;;;4373408;32;318081;-86
2023/10/10 06:47:00;;;;;;;22.33;7.32;;;;;;;;;;4381899;32;318223;-85
2023/10/10 06:49:43;;;;;;;30.77;7.47;;;;;;;;;;4370285;32;317892;-84
2023/10/10 06:52:17;;;;;;;22.02;9.13;;;;;;;;;;4371673;32;318263;-84
2023/10/10 06:54:53;;;;;;;24.90;8.50;;;;;;;;;;4382060;32;317821;-84
2023/10/10 06:57:21;;;;;;;30.23;9.32;;;;;;;;;;4369697;32;317945;-83
2023/10/10 06:59:51;;;;;;;20.62;7.97;;;;;;;;;;4381389;32;336310;-84
2023/10/10 07:02:21;;;;;;;22.30;6.72;;;;;;;;;;4372366;32;318267;-84
2023/10/10 07:04:53;;;;;;;16.55;7.32;;;;;;;;;;4384327;32;326391;-83
2023/10/10 07:07:22;;;;;;;16.60;5.30;;;;;;;;;;4373859;32;317933;-83
2023/10/10 07:09:57;;;;;;;18.25;6.00;;;;;;;;;;4378782;32;317982;-84
2023/10/10 07:12:28;;;;;;;18.30;5.72;;;;;;;;;;4371531;32;346748;-84
2023/10/10 07:15:00;;;;;;;10.15;5.25;;;;;;;;;;4382092;32;344562;-83
2023/10/10 07:17:28;;;;;;;11.82;5.47;;;;;;;;;;4373401;32;318042;-84
2023/10/10 07:22:41;;;;;;;12.82;5.47;;;;;;;;;;4369410;32;387934;-83
2023/10/10 07:25:18;;;;;;;16.33;5.37;;;;;;;;;;4383252;32;318133;-84
2023/10/10 07:27:46;;;;;;;11.82;4.62;;;;;;;;;;4365857;32;420488;-84
2023/10/10 07:30:18;;;;;;;10.30;5.03;;;;;;;;;;4371986;32;318041;-81
2023/10/10 07:32:48;;;;;;;17.23;5.87;;;;;;;;;;4383683;32;317867;-86
2023/10/10 07:35:16;;;;;;;14.30;5.80;;;;;;;;;;4372260;32;317972;-85
2023/10/10 07:37:44;;;;;;;11.57;5.87;;;;;;;;;;4380127;32;317857;-82
2023/10/10 07:43:03;;;;;;;12.77;5.20;;;;;;;;;;4381767;32;317976;-84
2023/10/10 07:45:43;;;;;;;14.70;5.50;;;;;;;;;;4367191;32;318026;-83
2023/10/10 07:51:07;;;;;;;13.25;5.07;;;;;;;;;;4359378;32;318339;-89
2023/10/10 07:53:44;;;;;;;12.37;4.28;;;;;;;;;;4372197;32;317920;-85
2023/10/10 07:56:11;;;;;;;13.40;4.03;;;;;;;;;;4373900;32;317794;-85
2023/10/10 07:58:49;;;;;;;17.95;4.90;;;;;;;;;;4386481;32;318184;-84
2023/10/10 08:01:18;;;;;;;12.65;5.47;;;;;;;;;;4375533;32;318097;-83
2023/10/10 08:03:46;;;;;;;15.45;5.07;;;;;;;;;;4384444;32;318075;-82
2023/10/10 08:06:17;;;;;;;19.55;6.30;;;;;;;;;;4376197;32;317720;-82
2023/10/10 08:08:48;;;;;;;14.98;4.62;;;;;;;;;;4390014;32;317840;-81
2023/10/10 08:11:26;;;;;;;16.02;4.18;;;;;;;;;;4379541;32;318000;-83
2023/10/10 08:13:54;;;;;;;17.10;5.32;;;;;;;;;;4371141;32;317855;-82
2023/10/10 08:16:29;;;;;;;9.75;5.10;;;;;;;;;;4372757;32;318072;-82
2023/10/10 08:19:04;;;;;;;13.77;4.25;;;;;;;;;;4385496;32;317017;-83
2023/10/10 08:21:37;;;;;;;15.15;4.80;;;;;;;;;;4347863;32;342664;-83
2023/10/10 08:24:12;;;;;;;10.60;4.62;;;;;;;;;;4376767;32;316754;-85
2023/10/10 08:26:44;;;;;;;17.30;4.37;;;;;;;;;;4369465;32;416844;-83
2023/10/10 08:29:13;;;;;;;13.80;4.78;;;;;;;;;;4377663;32;318118;-83
2023/10/10 08:31:43;;;;;;;11.75;5.10;;;;;;;;;;4380999;32;317855;-83
2023/10/10 08:34:11;;;;;;;13.45;5.18;;;;;;;;;;4373536;32;378693;-84
2023/10/10 08:36:43;;;;;;;10.07;5.00;;;;;;;;;;4381819;32;316875;-84
2023/10/10 08:39:25;;;;;;;9.15;4.20;;;;;;;;;;4382706;32;317728;-84
2023/10/10 08:41:55;;;;;;;17.73;4.22;;;;;;;;;;4384939;32;317084;-85
2023/10/10 08:44:24;;;;;;;13.75;4.68;;;;;;;;;;4375585;32;316981;-83
2023/10/10 08:46:59;;;;;;;12.60;4.90;;;;;;;;;;4384834;32;359759;-86
2023/10/10 08:49:29;;;;;;;10.80;5.25;;;;;;;;;;4372253;32;318233;-85
2023/10/10 08:52:02;;;;;;;19.85;5.15;;;;;;;;;;4386979;32;317663;-88
2023/10/10 08:54:32;;;;;;;40.92;7.28;;;;;;;;;;4371417;32;318036;-87
2023/10/10 08:57:04;;;;;;;12.95;4.35;;;;;;;;;;4383699;32;317675;-84
2023/10/10 08:59:32;;;;;;;12.98;2.92;;;;;;;;;;4371344;32;317849;-90
2023/10/10 09:02:12;;;;;;;6.00;2.60;;;;;;;;;;4384076;32;316954;-89
2023/10/10 09:04:40;;;;;;;6.85;2.35;;;;;;;;;;4372227;32;415996;-85
2023/10/10 09:07:11;;;;;;;8.75;2.37;;;;;;;;;;4385497;32;316742;-89
2023/10/10 09:09:39;;;;;;;17.37;2.92;;;;;;;;;;4369119;32;419414;-88
2023/10/10 09:12:14;;;;;;;4.25;2.03;;;;;;;;;;4384407;32;317641;-89
2023/10/10 09:14:43;;;;;;;8.88;2.28;;;;;;;;;;4371223;32;416053;-88
2023/10/10 09:17:28;;;;;;;7.47;2.10;;;;;;;;;;4373814;32;316943;-83
2023/10/10 09:19:57;;;;;;;11.25;2.03;;;;;;;;;;4384292;32;316599;-83
2023/10/10 09:22:34;;;;;;;8.88;2.05;;;;;;;;;;4373442;32;317945;-85
2023/10/10 09:25:17;;;;;;;4.07;2.00;;;;;;;;;;4387853;32;317291;-83
2023/10/10 09:27:58;;;;;;;6.20;1.75;;;;;;;;;;4377163;32;417523;-83
2023/10/10 09:30:31;;;;;;;2.87;1.80;;;;;;;;;;4382417;32;319502;-89
2023/10/10 09:33:12;;;;;;;2.28;1.30;;;;;;;;;;4390108;32;317377;-90
2023/10/10 09:35:41;;;;;;;3.28;2.10;;;;;;;;;;4372596;32;416915;-89
2023/10/10 09:38:19;;;;;;;3.28;1.70;;;;;;;;;;4383530;32;317030;-90
2023/10/10 09:40:59;;;;;;;4.70;1.40;;;;;;;;;;4370235;32;389277;-88
2023/10/10 09:43:35;;;;;;;3.03;1.50;;;;;;;;;;4370709;32;316757;-89
2023/10/10 09:46:11;;;;;;;3.47;1.55;;;;;;;;;;4384897;32;316733;-89
2023/10/10 09:54:15;;;;;;;3.62;1.83;;;;;;;;;;4372994;32;316827;-85
2023/10/10 09:56:46;;;;;;;7.18;2.12;;;;;;;;;;4383632;32;316688;-84
2023/10/10 09:59:16;;;;;;;2.62;1.58;;;;;;;;;;4374516;32;316675;-86
2023/10/10 10:01:46;;;;;;;4.80;1.55;;;;;;;;;;4382142;32;316698;-89
2023/10/10 10:04:25;;;;;;;7.00;1.95;;;;;;;;;;4372506;32;347464;-89
2023/10/10 10:07:12;;;;;;;6.03;1.67;;;;;;;;;;4383845;32;316668;-88
2023/10/10 10:10:09;;;;;;;7.25;1.98;;;;;;;;;;4367338;32;418825;-89
2023/10/10 10:13:19;;;;;;;5.18;1.95;;;;;;;;;;4371519;32;416767;-88
2023/10/10 10:16:08;;;;;;;4.90;1.58;;;;;;;;;;4363734;32;418923;-89
2023/10/10 10:18:45;;;;;;;3.90;2.08;;;;;;;;;;4368842;32;416678;-88
2023/10/10 10:21:19;;;;;;;6.87;2.08;;;;;;;;;;4372027;32;316503;-89
2023/10/10 10:23:56;;;;;;;9.90;1.67;;;;;;;;;;4378984;32;340283;-90
2023/10/10 10:26:41;;;;;;;9.65;1.87;;;;;;;;;;4371924;32;316872;-90
2023/10/10 10:29:15;;;;;;;10.73;2.30;;;;;;;;;;4366584;32;316735;-90
2023/10/10 10:31:53;;;;;;;4.95;2.00;;;;;;;;;;4381106;32;317799;-89
2023/10/10 10:34:31;;;;;;;7.72;2.42;;;;;;;;;;4374198;32;316498;-89
2023/10/10 10:37:06;;;;;;;7.75;1.90;;;;;;;;;;4383918;32;316562;-90
2023/10/10 10:39:36;;;;;;;11.88;3.17;;;;;;;;;;4364789;32;416863;-85
2023/10/10 10:42:11;;;;;;;4.55;1.98;;;;;;;;;;4382674;32;318860;-82
2023/10/10 10:44:54;;;;;;;7.72;2.45;;;;;;;;;;4370809;32;416485;-88
2023/10/10 10:47:45;;;;;;;4.20;1.30;;;;;;;;;;4373055;32;316773;-85
2023/10/10 10:50:28;;;;;;;5.28;2.33;;;;;;;;;;4371292;32;316746;-87
2023/10/10 10:53:06;;;;;;;5.15;1.83;;;;;;;;;;4382764;32;317063;-89
2023/10/10 10:55:39;;;;;;;6.32;2.30;;;;;;;;;;4368021;32;417077;-89
2023/10/10 10:58:07;;;;;;;10.90;2.53;;;;;;;;;;4383393;32;316878;-90
2023/10/10 11:00:57;;;;;;;8.15;2.08;;;;;;;;;;4371416;32;418392;-88
2023/10/10 11:03:32;;;;;;;7.90;2.83;;;;;;;;;;4370027;32;316713;-88
2023/10/10 11:06:00;;;;;;;9.30;2.83;;;;;;;;;;4383170;32;316423;-88
2023/10/10 11:11:25;;;;;;;9.70;3.87;;;;;;;;;;4373233;32;317804;-87
2023/10/10 11:13:54;;;;;;;12.25;4.55;;;;;;;;;;4380667;32;316978;-86
2023/10/10 11:16:29;;;;;;;15.38;4.30;;;;;;;;;;4371601;32;317554;-84
2023/10/10 11:18:58;;;;;;;15.43;3.50;;;;;;;;;;4383593;32;318003;-87
2023/10/10 11:21:30;;;;;;;5.35;3.40;;;;;;;;;;4369370;32;317803;-88
2023/10/10 11:24:00;;;;;;;12.75;5.22;;;;;;;;;;4383661;32;316879;-89
2023/10/10 11:26:34;;;;;;;10.55;4.25;;;;;;;;;;4373457;32;317641;-88
2023/10/10 11:29:02;;;;;;;12.18;4.37;;;;;;;;;;4382523;32;317782;-89
2023/10/10 11:31:47;;;;;;;12.00;3.87;;;;;;;;;;4366483;32;317861;-92
2023/10/10 11:34:34;;;;;;;8.68;3.92;;;;;;;;;;4373175;32;317681;-92
2023/10/10 11:37:14;;;;;;;6.05;3.37;;;;;;;;;;4384515;32;316803;-87
2023/10/10 11:39:48;;;;;;;7.97;3.35;;;;;;;;;;4368697;32;416975;-86
2023/10/10 11:42:29;;;;;;;5.20;2.92;;;;;;;;;;4373434;32;316852;-89
2023/10/10 11:45:02;;;;;;;13.40;3.30;;;;;;;;;;4383638;32;317266;-89
2023/10/10 11:47:29;;;;;;;8.55;2.72;;;;;;;;;;4367871;32;318033;-87
2023/10/10 11:50:01;;;;;;;9.77;3.25;;;;;;;;;;4383489;32;316697;-89
2023/10/10 11:52:30;;;;;;;11.82;2.95;;;;;;;;;;4371882;32;316960;-88
2023/10/10 11:55:00;;;;;;;10.48;2.92;;;;;;;;;;4382667;32;317615;-90
2023/10/10 11:57:33;;;;;;;10.55;2.87;;;;;;;;;;4370174;32;317944;-88
2023/10/10 12:00:07;;;;;;;5.47;2.83;;;;;;;;;;4383387;32;317959;-87
2023/10/10 12:02:40;;;;;;;9.65;2.97;;;;;;;;;;4370279;32;416029;-87
2023/10/10 12:07:51;;;;;;;8.90;3.37;;;;;;;;;;4381546;32;317857;-87
2023/10/10 12:10:23;;;;;;;15.52;3.58;;;;;;;;;;4372641;32;316987;-87
2023/10/10 12:12:53;;;;;;;8.73;2.55;;;;;;;;;;4384195;32;317837;-87
2023/10/10 12:15:22;;;;;;;10.52;2.92;;;;;;;;;;4373909;32;316588;-87
2023/10/10 12:17:51;;;;;;;11.18;3.25;;;;;;;;;;4380859;32;318109;-88
2023/10/10 12:20:19;;;;;;;7.15;3.17;;;;;;;;;;4373191;32;318252;-87
2023/10/10 12:22:46;;;;;;;5.57;2.90;;;;;;;;;;4382247;32;316855;-89
2023/10/10 12:25:17;;;;;;;10.63;3.05;;;;;;;;;;4371290;32;345801;-89
2023/10/10 12:27:47;;;;;;;12.75;3.35;;;;;;;;;;4380054;32;318020;-89
2023/10/10 12:30:18;;;;;;;12.10;3.72;;;;;;;;;;4372818;32;318151;-88
2023/10/10 12:32:49;;;;;;;12.00;3.50;;;;;;;;;;4384451;32;318190;-89
2023/10/10 12:35:16;;;;;;;8.93;3.53;;;;;;;;;;4375198;32;318212;-92
2023/10/10 12:37:44;;;;;;;7.53;3.20;;;;;;;;;;4381464;32;316786;-86
2023/10/10 12:40:12;;;;;;;4.07;2.78;;;;;;;;;;4373764;32;317073;-94
2023/10/10 12:42:40;;;;;;;8.07;3.33;;;;;;;;;;4386438;32;316931;-83
2023/10/10 12:45:10;;;;;;;5.25;3.00;;;;;;;;;;4385378;32;317160;-87
2023/10/10 12:47:37;;;;;;;9.05;3.60;;;;;;;;;;4369012;32;416202;-87
2023/10/10 12:50:13;;;;;;;10.07;3.67;;;;;;;;;;4384220;32;316895;-87
2023/10/10 12:52:46;;;;;;;12.15;3.33;;;;;;;;;;4372647;32;417385;-85
2023/10/10 12:55:16;;;;;;;9.50;4.25;;;;;;;;;;4375429;32;317823;-86
2023/10/10 12:57:44;;;;;;;8.07;3.45;;;;;;;;;;4381678;32;316569;-80
2023/10/10 13:00:33;;;;;;;9.00;3.47;;;;;;;;;;4373419;32;317406;-82
2023/10/10 13:03:00;;;;;;;4.50;2.70;;;;;;;;;;4387165;32;317022;-85
2023/10/10 13:05:28;;;;;;;7.12;3.47;;;;;;;;;;4372141;32;317134;-82
2023/10/10 13:07:58;;;;;;;8.98;3.65;;;;;;;;;;4385743;32;317080;-84
2023/10/10 13:10:30;;;;;;;11.60;3.28;;;;;;;;;;4374322;32;316772;-84
2023/10/10 13:12:57;;;;;;;16.48;4.95;;;;;;;;;;4384964;32;318243;-84
2023/10/10 13:15:30;;;;;;;17.37;4.28;;;;;;;;;;4373391;32;317889;-86
2023/10/10 13:20:54;;;;;;;11.12;3.70;;;;;;;;;;4447979;31;20260;-85
2023/10/10 13:23:22;;;;;;;13.70;3.85;;;;;;;;;;4414838;32;316981;-82
2023/10/10 13:25:49;;;;;;;12.23;3.65;;;;;;;;;;4421245;32;317931;-82
2023/10/10 13:28:21;;;;;;;13.68;4.15;;;;;;;;;;4392813;32;318125;-81
2023/10/10 13:30:48;;;;;;;13.35;3.58;;;;;;;;;;4406033;32;317574;-82
2023/10/10 13:33:17;;;;;;;15.52;4.00;;;;;;;;;;4393417;32;317945;-82
2023/10/10 13:35:45;;;;;;;14.73;4.05;;;;;;;;;;4407463;32;318014;-83
2023/10/10 13:38:14;;;;;;;11.80;4.00;;;;;;;;;;4399163;32;318045;-83
2023/10/10 13:40:46;;;;;;;11.38;3.35;;;;;;;;;;4405714;32;318105;-83
2023/10/10 13:43:16;;;;;;;10.55;3.35;;;;;;;;;;4390871;32;317764;-84
2023/10/10 13:45:45;;;;;;;9.15;2.97;;;;;;;;;;4401614;32;317813;-84
2023/10/10 13:48:18;;;;;;;21.70;4.12;;;;;;;;;;4393703;32;316713;-85
2023/10/10 13:50:46;;;;;;;7.35;3.17;;;;;;;;;;4407594;32;318254;-82
2023/10/10 13:53:16;;;;;;;10.88;3.40;;;;;;;;;;4402188;32;316841;-81
2023/10/10 13:55:44;;;;;;;6.22;3.47;;;;;;;;;;4409998;32;318082;-82
2023/10/10 13:58:13;;;;;;;13.85;2.70;;;;;;;;;;4398754;32;316741;-85
2023/10/10 14:00:41;;;;;;;7.10;2.55;;;;;;;;;;4407937;32;317939;-86
2023/10/10 14:03:09;;;;;;;9.57;3.42;;;;;;;;;;4391914;32;316710;-86
2023/10/10 14:05:41;;;;;;;4.20;2.55;;;;;;;;;;4404055;32;317031;-91
2023/10/10 14:08:17;;;;;;;6.87;2.70;;;;;;;;;;4396402;32;316764;-87
2023/10/10 14:10:50;;;;;;;10.00;3.40;;;;;;;;;;4404148;32;339652;-89
2023/10/10 14:13:20;;;;;;;12.63;2.67;;;;;;;;;;4393363;32;318189;-88
2023/10/10 14:15:56;;;;;;;4.37;2.28;;;;;;;;;;4400411;32;317921;-89
2023/10/10 14:21:47;;;;;;;4.18;1.90;;;;;;;;;;4390565;32;387935;-84
2023/10/10 14:24:15;;;;;;;9.33;2.60;;;;;;;;;;4398843;32;317138;-87
2023/10/10 14:26:44;;;;;;;6.03;2.05;;;;;;;;;;4410626;32;316530;-84
2023/10/10 14:29:13;;;;;;;5.43;2.22;;;;;;;;;;4400035;32;316577;-87
2023/10/10 14:31:44;;;;;;;4.57;2.33;;;;;;;;;;4400986;32;316719;-84
2023/10/10 14:34:19;;;;;;;5.22;2.22;;;;;;;;;;4388204;32;317048;-88
2023/10/10 14:36:48;;;;;;;7.37;2.20;;;;;;;;;;4400966;32;316654;-85
2023/10/10 14:39:28;;;;;;;8.77;2.33;;;;;;;;;;4388835;32;316776;-89
2023/10/10 14:41:57;;;;;;;7.05;2.87;;;;;;;;;;4399320;32;316604;-85
2023/10/10 14:44:26;;;;;;;19.30;2.70;;;;;;;;;;4387721;32;316707;-87
2023/10/10 14:46:54;;;;;;;8.73;2.85;;;;;;;;;;4400205;32;318035;-85
2023/10/10 14:49:29;;;;;;;7.43;2.10;;;;;;;;;;4387949;32;316914;-82
2023/10/10 14:52:02;;;;;;;8.57;2.30;;;;;;;;;;4396155;32;316711;-84
2023/10/10 14:54:31;;;;;;;10.32;2.45;;;;;;;;;;4387405;32;316894;-84
2023/10/10 14:57:02;;;;;;;6.35;1.75;;;;;;;;;;4399865;32;317782;-84
2023/10/10 14:59:33;;;;;;;5.62;1.98;;;;;;;;;;4385354;32;316957;-84
2023/10/10 15:02:01;;;;;;;7.50;1.60;;;;;;;;;;4398499;32;316945;-84
2023/10/10 15:04:29;;;;;;;5.50;2.00;;;;;;;;;;4387904;32;316719;-85
2023/10/10 15:06:59;;;;;;;6.30;1.48;;;;;;;;;;4399722;32;316843;-83
2023/10/10 15:09:27;;;;;;;5.47;1.83;;;;;;;;;;4388019;32;316733;-84
2023/10/10 15:11:58;;;;;;;2.95;2.00;;;;;;;;;;4397370;32;316795;-84
2023/10/10 15:14:31;;;;;;;4.07;1.52;;;;;;;;;;4387947;32;316626;-85
2023/10/10 15:17:00;;;;;;;4.68;2.00;;;;;;;;;;4399660;32;316852;-85
2023/10/10 15:19:28;;;;;;;4.87;1.95;;;;;;;;;;4385012;32;316881;-87
2023/10/10 15:21:56;;;;;;;4.93;2.33;;;;;;;;;;4399430;32;316695;-87
2023/10/10 15:24:23;;;;;;;5.37;1.90;;;;;;;;;;4387788;32;317174;-87
2023/10/10 15:26:51;;;;;;;9.88;3.35;;;;;;;;;;4398277;32;325927;-85
2023/10/10 15:29:21;;;;;;;10.10;4.15;;;;;;;;;;4387247;32;316757;-85
2023/10/10 15:31:51;;;;;;;6.95;3.40;;;;;;;;;;4397983;32;334892;-84
2023/10/10 15:34:18;;;;;;;11.48;3.87;;;;;;;;;;4390213;32;316685;-84
2023/10/10 15:36:46;;;;;;;9.52;3.10;;;;;;;;;;4398644;32;317896;-84
2023/10/10 15:39:15;;;;;;;16.20;4.77;;;;;;;;;;4383984;32;345401;-84
2023/10/10 15:41:44;;;;;;;11.35;3.62;;;;;;;;;;4392175;32;318154;-84
2023/10/10 15:44:15;;;;;;;7.68;3.35;;;;;;;;;;4387994;32;318098;-84
2023/10/10 15:46:44;;;;;;;7.50;3.00;;;;;;;;;;4399644;32;316629;-85
2023/10/10 15:49:14;;;;;;;9.20;3.60;;;;;;;;;;4387065;32;342443;-84
2023/10/10 15:51:44;;;;;;;8.50;3.40;;;;;;;;;;4375336;32;326145;-86
2023/10/10 15:54:14;;;;;;;7.07;2.33;;;;;;;;;;4392023;32;316813;-84
2023/10/10 15:56:41;;;;;;;4.32;2.05;;;;;;;;;;4404097;32;317014;-86
2023/10/10 15:59:09;;;;;;;14.32;2.12;;;;;;;;;;4391664;32;316795;-84
2023/10/10 16:01:37;;;;;;;4.47;2.00;;;;;;;;;;4396313;32;317957;-85
2023/10/10 16:04:12;;;;;;;5.60;2.30;;;;;;;;;;4397897;32;316659;-84
2023/10/10 16:06:46;;;;;;;4.18;1.95;;;;;;;;;;4386779;32;415953;-84
2023/10/10 16:09:19;;;;;;;5.70;2.30;;;;;;;;;;4386835;32;316562;-83
2023/10/10 16:11:52;;;;;;;4.93;2.22;;;;;;;;;;4402355;32;316841;-85
2023/10/10 16:14:20;;;;;;;4.12;1.67;;;;;;;;;;4391155;32;317023;-86
2023/10/10 16:16:49;;;;;;;5.00;1.45;;;;;;;;;;4399278;32;316983;-89
2023/10/10 16:19:20;;;;;;;8.27;2.67;;;;;;;;;;4386038;32;316984;-89
2023/10/10 16:21:50;;;;;;;7.35;2.17;;;;;;;;;;4397726;32;316947;-91
2023/10/10 16:24:18;;;;;;;8.18;3.85;;;;;;;;;;4388546;32;316654;-86
2023/10/10 16:26:46;;;;;;;15.75;6.37;;;;;;;;;;4397554;32;316446;-86
2023/10/10 16:29:19;;;;;;;12.93;6.20;;;;;;;;;;4387849;32;317757;-86
2023/10/10 16:31:46;;;;;;;9.32;3.00;;;;;;;;;;4398095;32;317981;-85
2023/10/10 16:34:16;;;;;;;9.93;2.80;;;;;;;;;;4385635;32;344459;-85
2023/10/10 16:36:45;;;;;;;7.80;2.40;;;;;;;;;;4398750;32;320755;-84
2023/10/10 16:39:14;;;;;;;7.90;2.58;;;;;;;;;;4385483;32;316594;-85
2023/10/10 16:41:41;;;;;;;5.25;2.33;;;;;;;;;;4395807;32;316775;-83
2023/10/10 16:44:13;;;;;;;6.68;2.62;;;;;;;;;;4388347;32;316673;-83
2023/10/10 16:46:40;;;;;;;6.75;2.12;;;;;;;;;;4397714;32;316906;-86
2023/10/10 16:49:08;;;;;;;9.40;2.10;;;;;;;;;;4398749;32;316513;-84
2023/10/10 16:51:35;;;;;;;10.07;2.22;;;;;;;;;;4381317;32;416053;-84
2023/10/10 16:54:06;;;;;;;5.25;2.15;;;;;;;;;;4396579;32;317564;-84
2023/10/10 16:56:35;;;;;;;5.70;1.98;;;;;;;;;;4384771;32;416059;-85
2023/10/10 16:59:04;;;;;;;10.07;2.42;;;;;;;;;;4398508;32;316771;-83
2023/10/10 17:01:32;;;;;;;3.92;2.40;;;;;;;;;;4384620;32;317764;-84